sensor_id;sensor_type;location;lat;lon;timestamp;P1;durP1;ratioP1;P2;durP2;ratioP2
10701;SDS011;5402;50.004;8.246;2022-10-31T00:01:17;14.23;;;9.40;;
10701;SDS011;5402;50.004;8.246;2022-10-31T00:03:47;16.70;;;9.07;;
10701;SDS011;5402;50.004;8.246;2022-10-31T00:06:14;11.17;;;8.13;;
10701;SDS011;5402;50.004;8.246;2022-10-31T00:08:43;13.93;;;10.03;;
10701;SDS011;5402;50.004;8.246;2022-10-31T00:11:10;15.07;;;10.10;;
10701;SDS011;5402;50.004;8.246;2022-10-31T00:13:37;13.87;;;9.43;;
10701;SDS011;5402;50.004;8.246;2022-10-31T00:16:04;15.33;;;9.93;;
10701;SDS011;5402;50.004;8.246;2022-10-31T00:18:31;16.73;;;10.37;;
10701;SDS011;5402;50.004;8.246;2022-10-31T00:21:00;14.27;;;10.27;;
10701;SDS011;5402;50.004;8.246;2022-10-31T00:23:27;15.63;;;10.43;;
10701;SDS011;5402;50.004;8.246;2022-10-31T00:25:53;15.63;;;9.97;;
10701;SDS011;5402;50.004;8.246;2022-10-31T00:28:20;16.70;;;10.43;;
10701;SDS011;5402;50.004;8.246;2022-10-31T00:30:47;14.80;;;10.17;;
10701;SDS011;5402;50.004;8.246;2022-10-31T00:33:14;14.17;;;10.50;;
10701;SDS011;5402;50.004;8.246;2022-10-31T00:35:40;17.20;;;11.17;;
10701;SDS011;5402;50.004;8.246;2022-10-31T00:38:08;15.57;;;10.60;;
10701;SDS011;5402;50.004;8.246;2022-10-31T00:40:35;15.33;;;10.37;;
10701;SDS011;5402;50.004;8.246;2022-10-31T00:43:02;13.77;;;10.07;;
10701;SDS011;5402;50.004;8.246;2022-10-31T00:45:28;13.47;;;9.97;;
10701;SDS011;5402;50.004;8.246;2022-10-31T00:47:55;15.90;;;10.03;;
10701;SDS011;5402;50.004;8.246;2022-10-31T00:50:22;16.00;;;9.63;;
10701;SDS011;5402;50.004;8.246;2022-10-31T00:52:49;11.50;;;9.00;;
10701;SDS011;5402;50.004;8.246;2022-10-31T00:55:17;14.73;;;8.93;;
10701;SDS011;5402;50.004;8.246;2022-10-31T00:57:45;13.70;;;8.67;;
10701;SDS011;5402;50.004;8.246;2022-10-31T01:00:12;14.60;;;8.97;;
10701;SDS011;5402;50.004;8.246;2022-10-31T01:02:39;11.90;;;8.63;;
10701;SDS011;5402;50.004;8.246;2022-10-31T01:05:06;13.07;;;9.00;;
10701;SDS011;5402;50.004;8.246;2022-10-31T01:07:35;14.77;;;9.97;;
10701;SDS011;5402;50.004;8.246;2022-10-31T01:10:02;13.00;;;8.67;;
10701;SDS011;5402;50.004;8.246;2022-10-31T01:12:31;15.50;;;9.80;;
10701;SDS011;5402;50.004;8.246;2022-10-31T01:15:02;14.00;;;9.20;;
10701;SDS011;5402;50.004;8.246;2022-10-31T01:17:29;12.90;;;9.50;;
10701;SDS011;5402;50.004;8.246;2022-10-31T01:19:56;14.50;;;9.33;;
10701;SDS011;5402;50.004;8.246;2022-10-31T01:22:23;11.90;;;9.17;;
10701;SDS011;5402;50.004;8.246;2022-10-31T01:24:49;15.20;;;8.87;;
10701;SDS011;5402;50.004;8.246;2022-10-31T01:27:16;11.43;;;8.90;;
10701;SDS011;5402;50.004;8.246;2022-10-31T01:29:44;11.93;;;8.30;;
10701;SDS011;5402;50.004;8.246;2022-10-31T01:32:11;10.97;;;8.23;;
10701;SDS011;5402;50.004;8.246;2022-10-31T01:34:38;12.00;;;8.30;;
10701;SDS011;5402;50.004;8.246;2022-10-31T01:37:05;11.13;;;8.17;;
10701;SDS011;5402;50.004;8.246;2022-10-31T01:39:31;12.60;;;8.07;;
10701;SDS011;5402;50.004;8.246;2022-10-31T01:41:58;11.77;;;7.77;;
10701;SDS011;5402;50.004;8.246;2022-10-31T01:50:13;13.83;;;8.37;;
10701;SDS011;5402;50.004;8.246;2022-10-31T01:52:50;12.33;;;8.30;;
10701;SDS011;5402;50.004;8.246;2022-10-31T01:55:19;11.77;;;8.27;;
10701;SDS011;5402;50.004;8.246;2022-10-31T01:57:51;12.50;;;8.47;;
10701;SDS011;5402;50.004;8.246;2022-10-31T02:00:22;11.73;;;8.30;;
10701;SDS011;5402;50.004;8.246;2022-10-31T02:02:49;13.03;;;8.80;;
10701;SDS011;5402;50.004;8.246;2022-10-31T02:05:18;10.17;;;6.93;;
10701;SDS011;5402;50.004;8.246;2022-10-31T02:07:49;11.50;;;7.87;;
10701;SDS011;5402;50.004;8.246;2022-10-31T02:10:20;13.93;;;7.93;;
10701;SDS011;5402;50.004;8.246;2022-10-31T02:12:48;11.40;;;7.73;;
10701;SDS011;5402;50.004;8.246;2022-10-31T02:15:18;11.90;;;7.00;;
10701;SDS011;5402;50.004;8.246;2022-10-31T02:17:46;11.30;;;7.33;;
10701;SDS011;5402;50.004;8.246;2022-10-31T02:20:15;11.00;;;7.73;;
10701;SDS011;5402;50.004;8.246;2022-10-31T02:22:49;10.60;;;6.87;;
10701;SDS011;5402;50.004;8.246;2022-10-31T02:25:46;16.03;;;7.03;;
10701;SDS011;5402;50.004;8.246;2022-10-31T02:28:47;10.93;;;7.07;;
10701;SDS011;5402;50.004;8.246;2022-10-31T02:31:29;8.33;;;6.67;;
10701;SDS011;5402;50.004;8.246;2022-10-31T02:34:02;8.87;;;7.07;;
10701;SDS011;5402;50.004;8.246;2022-10-31T02:36:38;12.07;;;6.97;;
10701;SDS011;5402;50.004;8.246;2022-10-31T02:39:11;11.90;;;6.60;;
10701;SDS011;5402;50.004;8.246;2022-10-31T02:41:45;10.20;;;7.00;;
10701;SDS011;5402;50.004;8.246;2022-10-31T02:44:15;12.37;;;6.90;;
10701;SDS011;5402;50.004;8.246;2022-10-31T02:46:50;8.67;;;6.13;;
10701;SDS011;5402;50.004;8.246;2022-10-31T02:49:22;10.60;;;6.20;;
10701;SDS011;5402;50.004;8.246;2022-10-31T02:51:53;9.90;;;6.73;;
10701;SDS011;5402;50.004;8.246;2022-10-31T02:54:22;9.93;;;6.07;;
10701;SDS011;5402;50.004;8.246;2022-10-31T02:56:50;8.20;;;6.23;;
10701;SDS011;5402;50.004;8.246;2022-10-31T02:59:21;10.73;;;5.87;;
10701;SDS011;5402;50.004;8.246;2022-10-31T03:01:56;6.77;;;5.83;;
10701;SDS011;5402;50.004;8.246;2022-10-31T03:04:36;8.50;;;6.37;;
10701;SDS011;5402;50.004;8.246;2022-10-31T03:07:18;7.90;;;5.90;;
10701;SDS011;5402;50.004;8.246;2022-10-31T03:09:52;7.73;;;5.87;;
10701;SDS011;5402;50.004;8.246;2022-10-31T03:12:26;7.83;;;5.80;;
10701;SDS011;5402;50.004;8.246;2022-10-31T03:14:58;10.10;;;6.00;;
10701;SDS011;5402;50.004;8.246;2022-10-31T03:17:35;8.77;;;6.70;;
10701;SDS011;5402;50.004;8.246;2022-10-31T03:20:04;12.40;;;6.03;;
10701;SDS011;5402;50.004;8.246;2022-10-31T03:22:35;7.37;;;5.70;;
10701;SDS011;5402;50.004;8.246;2022-10-31T03:25:06;9.47;;;5.63;;
10701;SDS011;5402;50.004;8.246;2022-10-31T03:27:35;7.40;;;5.80;;
10701;SDS011;5402;50.004;8.246;2022-10-31T03:30:04;8.63;;;5.30;;
10701;SDS011;5402;50.004;8.246;2022-10-31T03:32:35;9.90;;;5.70;;
10701;SDS011;5402;50.004;8.246;2022-10-31T03:35:06;9.13;;;5.20;;
10701;SDS011;5402;50.004;8.246;2022-10-31T03:37:36;7.67;;;5.73;;
10701;SDS011;5402;50.004;8.246;2022-10-31T03:40:05;8.73;;;5.90;;
10701;SDS011;5402;50.004;8.246;2022-10-31T03:42:35;9.63;;;6.00;;
10701;SDS011;5402;50.004;8.246;2022-10-31T03:45:06;8.53;;;6.20;;
10701;SDS011;5402;50.004;8.246;2022-10-31T03:47:39;7.40;;;5.53;;
10701;SDS011;5402;50.004;8.246;2022-10-31T03:50:08;9.43;;;5.60;;
10701;SDS011;5402;50.004;8.246;2022-10-31T03:52:37;6.83;;;5.20;;
10701;SDS011;5402;50.004;8.246;2022-10-31T03:55:12;9.23;;;6.03;;
10701;SDS011;5402;50.004;8.246;2022-10-31T03:57:44;10.37;;;6.13;;
10701;SDS011;5402;50.004;8.246;2022-10-31T04:00:14;11.80;;;6.17;;
10701;SDS011;5402;50.004;8.246;2022-10-31T04:02:45;8.53;;;6.10;;
10701;SDS011;5402;50.004;8.246;2022-10-31T04:05:15;6.67;;;5.47;;
10701;SDS011;5402;50.004;8.246;2022-10-31T04:07:45;8.90;;;6.33;;
10701;SDS011;5402;50.004;8.246;2022-10-31T04:10:15;7.60;;;5.60;;
10701;SDS011;5402;50.004;8.246;2022-10-31T04:12:43;7.43;;;5.90;;
10701;SDS011;5402;50.004;8.246;2022-10-31T04:15:24;9.70;;;6.32;;
10701;SDS011;5402;50.004;8.246;2022-10-31T04:17:55;11.33;;;6.33;;
10701;SDS011;5402;50.004;8.246;2022-10-31T04:20:31;9.40;;;5.77;;
10701;SDS011;5402;50.004;8.246;2022-10-31T04:23:00;7.30;;;5.77;;
10701;SDS011;5402;50.004;8.246;2022-10-31T04:25:27;11.37;;;5.97;;
10701;SDS011;5402;50.004;8.246;2022-10-31T04:27:54;8.43;;;5.77;;
10701;SDS011;5402;50.004;8.246;2022-10-31T04:30:21;8.67;;;5.97;;
10701;SDS011;5402;50.004;8.246;2022-10-31T04:32:48;10.50;;;6.37;;
10701;SDS011;5402;50.004;8.246;2022-10-31T04:35:16;8.63;;;5.47;;
10701;SDS011;5402;50.004;8.246;2022-10-31T04:37:42;11.50;;;6.30;;
10701;SDS011;5402;50.004;8.246;2022-10-31T04:40:10;9.97;;;5.87;;
10701;SDS011;5402;50.004;8.246;2022-10-31T04:42:37;8.13;;;5.60;;
10701;SDS011;5402;50.004;8.246;2022-10-31T04:45:04;8.97;;;5.47;;
10701;SDS011;5402;50.004;8.246;2022-10-31T04:47:31;8.17;;;6.17;;
10701;SDS011;5402;50.004;8.246;2022-10-31T04:49:58;15.43;;;7.00;;
10701;SDS011;5402;50.004;8.246;2022-10-31T04:52:26;11.47;;;7.00;;
10701;SDS011;5402;50.004;8.246;2022-10-31T04:54:55;8.97;;;6.83;;
10701;SDS011;5402;50.004;8.246;2022-10-31T04:57:21;8.93;;;6.37;;
10701;SDS011;5402;50.004;8.246;2022-10-31T04:59:48;8.10;;;6.27;;
10701;SDS011;5402;50.004;8.246;2022-10-31T05:02:15;12.63;;;6.90;;
10701;SDS011;5402;50.004;8.246;2022-10-31T05:04:41;9.97;;;6.63;;
10701;SDS011;5402;50.004;8.246;2022-10-31T05:07:08;11.07;;;6.87;;
10701;SDS011;5402;50.004;8.246;2022-10-31T05:09:36;10.33;;;6.93;;
10701;SDS011;5402;50.004;8.246;2022-10-31T05:12:03;7.57;;;6.03;;
10701;SDS011;5402;50.004;8.246;2022-10-31T05:14:30;8.80;;;5.80;;
10701;SDS011;5402;50.004;8.246;2022-10-31T05:16:56;8.77;;;6.33;;
10701;SDS011;5402;50.004;8.246;2022-10-31T05:19:23;9.50;;;6.27;;
10701;SDS011;5402;50.004;8.246;2022-10-31T05:21:50;10.13;;;6.50;;
10701;SDS011;5402;50.004;8.246;2022-10-31T05:24:17;10.63;;;6.33;;
10701;SDS011;5402;50.004;8.246;2022-10-31T05:26:48;10.47;;;6.83;;
10701;SDS011;5402;50.004;8.246;2022-10-31T05:29:15;10.27;;;6.20;;
10701;SDS011;5402;50.004;8.246;2022-10-31T05:31:41;9.53;;;6.57;;
10701;SDS011;5402;50.004;8.246;2022-10-31T05:34:08;12.77;;;6.43;;
10701;SDS011;5402;50.004;8.246;2022-10-31T05:36:35;9.77;;;6.77;;
10701;SDS011;5402;50.004;8.246;2022-10-31T05:39:02;11.53;;;6.13;;
10701;SDS011;5402;50.004;8.246;2022-10-31T05:41:28;11.83;;;6.37;;
10701;SDS011;5402;50.004;8.246;2022-10-31T05:43:56;9.63;;;6.50;;
10701;SDS011;5402;50.004;8.246;2022-10-31T05:46:23;8.60;;;6.27;;
10701;SDS011;5402;50.004;8.246;2022-10-31T05:48:50;10.83;;;6.40;;
10701;SDS011;5402;50.004;8.246;2022-10-31T05:51:17;6.90;;;5.73;;
10701;SDS011;5402;50.004;8.246;2022-10-31T05:53:43;10.53;;;6.10;;
10701;SDS011;5402;50.004;8.246;2022-10-31T05:56:12;11.67;;;5.80;;
10701;SDS011;5402;50.004;8.246;2022-10-31T05:58:39;9.13;;;6.60;;
10701;SDS011;5402;50.004;8.246;2022-10-31T06:01:07;10.93;;;6.00;;
10701;SDS011;5402;50.004;8.246;2022-10-31T06:03:33;11.23;;;6.13;;
10701;SDS011;5402;50.004;8.246;2022-10-31T06:06:00;8.50;;;6.03;;
10701;SDS011;5402;50.004;8.246;2022-10-31T06:08:27;10.73;;;6.23;;
10701;SDS011;5402;50.004;8.246;2022-10-31T06:10:53;8.03;;;5.90;;
10701;SDS011;5402;50.004;8.246;2022-10-31T06:13:20;10.87;;;6.40;;
10701;SDS011;5402;50.004;8.246;2022-10-31T06:15:47;8.00;;;6.27;;
10701;SDS011;5402;50.004;8.246;2022-10-31T06:18:15;9.03;;;5.73;;
10701;SDS011;5402;50.004;8.246;2022-10-31T06:20:42;8.23;;;6.17;;
10701;SDS011;5402;50.004;8.246;2022-10-31T06:23:08;12.33;;;6.73;;
10701;SDS011;5402;50.004;8.246;2022-10-31T06:25:35;10.37;;;6.70;;
10701;SDS011;5402;50.004;8.246;2022-10-31T06:28:02;10.57;;;6.27;;
10701;SDS011;5402;50.004;8.246;2022-10-31T06:30:31;10.43;;;5.57;;
10701;SDS011;5402;50.004;8.246;2022-10-31T06:33:02;8.50;;;5.90;;
10701;SDS011;5402;50.004;8.246;2022-10-31T06:35:31;9.67;;;5.80;;
10701;SDS011;5402;50.004;8.246;2022-10-31T06:37:58;8.33;;;5.97;;
10701;SDS011;5402;50.004;8.246;2022-10-31T06:40:25;8.37;;;6.10;;
10701;SDS011;5402;50.004;8.246;2022-10-31T06:42:58;9.93;;;6.50;;
10701;SDS011;5402;50.004;8.246;2022-10-31T06:45:25;9.30;;;6.70;;
10701;SDS011;5402;50.004;8.246;2022-10-31T06:47:53;15.00;;;7.10;;
10701;SDS011;5402;50.004;8.246;2022-10-31T06:50:20;9.10;;;5.80;;
10701;SDS011;5402;50.004;8.246;2022-10-31T06:52:52;8.07;;;6.13;;
10701;SDS011;5402;50.004;8.246;2022-10-31T06:55:20;7.90;;;5.60;;
10701;SDS011;5402;50.004;8.246;2022-10-31T06:57:51;8.73;;;6.10;;
10701;SDS011;5402;50.004;8.246;2022-10-31T07:00:18;10.63;;;6.20;;
10701;SDS011;5402;50.004;8.246;2022-10-31T07:02:52;10.10;;;6.63;;
10701;SDS011;5402;50.004;8.246;2022-10-31T07:05:20;11.63;;;7.33;;
10701;SDS011;5402;50.004;8.246;2022-10-31T07:07:47;14.07;;;6.97;;
10701;SDS011;5402;50.004;8.246;2022-10-31T07:10:18;9.30;;;6.13;;
10701;SDS011;5402;50.004;8.246;2022-10-31T07:12:45;12.47;;;6.57;;
10701;SDS011;5402;50.004;8.246;2022-10-31T07:15:12;8.70;;;6.13;;
10701;SDS011;5402;50.004;8.246;2022-10-31T07:17:38;11.57;;;6.57;;
10701;SDS011;5402;50.004;8.246;2022-10-31T07:20:06;9.83;;;5.93;;
10701;SDS011;5402;50.004;8.246;2022-10-31T07:22:33;8.97;;;6.03;;
10701;SDS011;5402;50.004;8.246;2022-10-31T07:25:00;8.80;;;5.77;;
10701;SDS011;5402;50.004;8.246;2022-10-31T07:27:29;13.57;;;6.97;;
10701;SDS011;5402;50.004;8.246;2022-10-31T07:30:01;11.67;;;7.33;;
10701;SDS011;5402;50.004;8.246;2022-10-31T07:32:36;12.87;;;6.97;;
10701;SDS011;5402;50.004;8.246;2022-10-31T07:35:03;9.67;;;6.30;;
10701;SDS011;5402;50.004;8.246;2022-10-31T07:37:30;8.53;;;6.70;;
10701;SDS011;5402;50.004;8.246;2022-10-31T07:39:57;10.53;;;6.40;;
10701;SDS011;5402;50.004;8.246;2022-10-31T07:42:24;11.93;;;6.87;;
10701;SDS011;5402;50.004;8.246;2022-10-31T07:44:52;10.07;;;6.53;;
10701;SDS011;5402;50.004;8.246;2022-10-31T07:47:19;8.77;;;6.93;;
10701;SDS011;5402;50.004;8.246;2022-10-31T07:49:45;11.30;;;6.80;;
10701;SDS011;5402;50.004;8.246;2022-10-31T07:52:12;9.87;;;7.00;;
10701;SDS011;5402;50.004;8.246;2022-10-31T07:54:39;10.07;;;6.40;;
10701;SDS011;5402;50.004;8.246;2022-10-31T07:57:05;10.87;;;7.07;;
10701;SDS011;5402;50.004;8.246;2022-10-31T07:59:32;13.00;;;6.10;;
10701;SDS011;5402;50.004;8.246;2022-10-31T08:02:00;10.53;;;6.30;;
10701;SDS011;5402;50.004;8.246;2022-10-31T08:04:27;8.27;;;6.10;;
10701;SDS011;5402;50.004;8.246;2022-10-31T08:06:54;12.47;;;7.23;;
10701;SDS011;5402;50.004;8.246;2022-10-31T08:09:20;9.80;;;6.67;;
10701;SDS011;5402;50.004;8.246;2022-10-31T08:11:47;10.43;;;6.80;;
10701;SDS011;5402;50.004;8.246;2022-10-31T08:14:14;14.53;;;6.50;;
10701;SDS011;5402;50.004;8.246;2022-10-31T08:16:41;14.03;;;6.33;;
10701;SDS011;5402;50.004;8.246;2022-10-31T08:19:09;9.23;;;6.00;;
10701;SDS011;5402;50.004;8.246;2022-10-31T08:21:35;10.17;;;5.60;;
10701;SDS011;5402;50.004;8.246;2022-10-31T08:24:02;12.10;;;6.20;;
10701;SDS011;5402;50.004;8.246;2022-10-31T08:26:29;9.20;;;6.63;;
10701;SDS011;5402;50.004;8.246;2022-10-31T08:28:56;10.30;;;6.40;;
10701;SDS011;5402;50.004;8.246;2022-10-31T08:31:23;10.00;;;6.60;;
10701;SDS011;5402;50.004;8.246;2022-10-31T08:33:51;10.07;;;6.30;;
10701;SDS011;5402;50.004;8.246;2022-10-31T08:36:20;14.77;;;7.20;;
10701;SDS011;5402;50.004;8.246;2022-10-31T08:38:47;14.90;;;7.10;;
10701;SDS011;5402;50.004;8.246;2022-10-31T08:41:14;10.47;;;6.73;;
10701;SDS011;5402;50.004;8.246;2022-10-31T08:43:41;16.07;;;7.20;;
10701;SDS011;5402;50.004;8.246;2022-10-31T08:46:08;11.57;;;6.93;;
10701;SDS011;5402;50.004;8.246;2022-10-31T08:48:34;10.40;;;6.83;;
10701;SDS011;5402;50.004;8.246;2022-10-31T08:51:01;14.97;;;7.00;;
10701;SDS011;5402;50.004;8.246;2022-10-31T08:53:29;11.07;;;7.47;;
10701;SDS011;5402;50.004;8.246;2022-10-31T08:55:56;17.50;;;8.23;;
10701;SDS011;5402;50.004;8.246;2022-10-31T08:58:23;11.87;;;7.83;;
10701;SDS011;5402;50.004;8.246;2022-10-31T09:00:51;12.97;;;7.47;;
10701;SDS011;5402;50.004;8.246;2022-10-31T09:03:20;13.73;;;7.30;;
10701;SDS011;5402;50.004;8.246;2022-10-31T09:05:48;12.30;;;7.33;;
10701;SDS011;5402;50.004;8.246;2022-10-31T09:08:15;15.13;;;7.90;;
10701;SDS011;5402;50.004;8.246;2022-10-31T09:10:44;14.87;;;7.87;;
10701;SDS011;5402;50.004;8.246;2022-10-31T09:13:12;14.37;;;8.43;;
10701;SDS011;5402;50.004;8.246;2022-10-31T09:15:40;15.33;;;8.43;;
10701;SDS011;5402;50.004;8.246;2022-10-31T09:18:08;13.53;;;7.93;;
10701;SDS011;5402;50.004;8.246;2022-10-31T09:20:36;14.67;;;8.83;;
10701;SDS011;5402;50.004;8.246;2022-10-31T09:23:04;13.77;;;7.73;;
10701;SDS011;5402;50.004;8.246;2022-10-31T09:25:32;14.33;;;8.17;;
10701;SDS011;5402;50.004;8.246;2022-10-31T09:28:02;13.23;;;8.37;;
10701;SDS011;5402;50.004;8.246;2022-10-31T09:30:31;15.17;;;8.07;;
10701;SDS011;5402;50.004;8.246;2022-10-31T09:33:00;12.13;;;8.33;;
10701;SDS011;5402;50.004;8.246;2022-10-31T09:35:28;10.80;;;7.57;;
10701;SDS011;5402;50.004;8.246;2022-10-31T09:37:55;14.33;;;8.50;;
10701;SDS011;5402;50.004;8.246;2022-10-31T09:40:23;13.10;;;8.93;;
10701;SDS011;5402;50.004;8.246;2022-10-31T09:42:56;12.83;;;8.30;;
10701;SDS011;5402;50.004;8.246;2022-10-31T09:45:32;12.60;;;8.83;;
10701;SDS011;5402;50.004;8.246;2022-10-31T09:48:13;14.83;;;8.73;;
10701;SDS011;5402;50.004;8.246;2022-10-31T09:50:52;15.23;;;9.60;;
10701;SDS011;5402;50.004;8.246;2022-10-31T09:53:24;20.13;;;9.77;;
10701;SDS011;5402;50.004;8.246;2022-10-31T09:55:57;18.27;;;8.77;;
10701;SDS011;5402;50.004;8.246;2022-10-31T09:58:28;13.27;;;9.67;;
10701;SDS011;5402;50.004;8.246;2022-10-31T10:00:56;16.20;;;9.37;;
10701;SDS011;5402;50.004;8.246;2022-10-31T10:03:28;14.40;;;9.30;;
10701;SDS011;5402;50.004;8.246;2022-10-31T10:06:02;14.70;;;9.73;;
10701;SDS011;5402;50.004;8.246;2022-10-31T10:08:36;15.10;;;8.93;;
10701;SDS011;5402;50.004;8.246;2022-10-31T10:11:07;16.27;;;8.83;;
10701;SDS011;5402;50.004;8.246;2022-10-31T10:13:50;15.17;;;8.87;;
10701;SDS011;5402;50.004;8.246;2022-10-31T10:16:37;12.63;;;8.83;;
10701;SDS011;5402;50.004;8.246;2022-10-31T10:19:19;17.73;;;8.93;;
10701;SDS011;5402;50.004;8.246;2022-10-31T10:21:56;13.47;;;8.63;;
10701;SDS011;5402;50.004;8.246;2022-10-31T10:24:36;12.57;;;8.37;;
10701;SDS011;5402;50.004;8.246;2022-10-31T10:27:17;11.00;;;8.13;;
10701;SDS011;5402;50.004;8.246;2022-10-31T10:29:52;12.50;;;8.37;;
10701;SDS011;5402;50.004;8.246;2022-10-31T10:32:26;12.60;;;7.80;;
10701;SDS011;5402;50.004;8.246;2022-10-31T10:34:57;15.03;;;8.37;;
10701;SDS011;5402;50.004;8.246;2022-10-31T10:37:42;12.67;;;8.17;;
10701;SDS011;5402;50.004;8.246;2022-10-31T10:40:13;12.33;;;8.30;;
10701;SDS011;5402;50.004;8.246;2022-10-31T10:42:42;14.03;;;7.83;;
10701;SDS011;5402;50.004;8.246;2022-10-31T10:45:35;17.27;;;8.50;;
10701;SDS011;5402;50.004;8.246;2022-10-31T10:48:23;16.67;;;9.03;;
10701;SDS011;5402;50.004;8.246;2022-10-31T10:50:55;13.80;;;8.43;;
10701;SDS011;5402;50.004;8.246;2022-10-31T10:53:30;16.43;;;8.97;;
10701;SDS011;5402;50.004;8.246;2022-10-31T10:56:26;15.03;;;9.43;;
10701;SDS011;5402;50.004;8.246;2022-10-31T10:59:03;14.30;;;8.60;;
10701;SDS011;5402;50.004;8.246;2022-10-31T11:01:31;14.77;;;8.67;;
10701;SDS011;5402;50.004;8.246;2022-10-31T11:03:58;12.50;;;7.97;;
10701;SDS011;5402;50.004;8.246;2022-10-31T11:06:25;14.33;;;8.83;;
10701;SDS011;5402;50.004;8.246;2022-10-31T11:08:52;13.17;;;8.50;;
10701;SDS011;5402;50.004;8.246;2022-10-31T11:11:23;13.00;;;8.97;;
10701;SDS011;5402;50.004;8.246;2022-10-31T11:13:55;15.43;;;8.73;;
10701;SDS011;5402;50.004;8.246;2022-10-31T11:16:29;16.03;;;9.30;;
10701;SDS011;5402;50.004;8.246;2022-10-31T11:19:06;14.50;;;9.27;;
10701;SDS011;5402;50.004;8.246;2022-10-31T11:21:35;16.83;;;9.60;;
10701;SDS011;5402;50.004;8.246;2022-10-31T11:24:03;12.50;;;8.97;;
10701;SDS011;5402;50.004;8.246;2022-10-31T11:26:30;15.70;;;9.43;;
10701;SDS011;5402;50.004;8.246;2022-10-31T11:29:00;12.90;;;9.47;;
10701;SDS011;5402;50.004;8.246;2022-10-31T11:31:28;15.53;;;9.20;;
10701;SDS011;5402;50.004;8.246;2022-10-31T11:33:57;11.83;;;9.37;;
10701;SDS011;5402;50.004;8.246;2022-10-31T11:36:27;14.43;;;9.23;;
10701;SDS011;5402;50.004;8.246;2022-10-31T11:38:56;16.23;;;9.70;;
10701;SDS011;5402;50.004;8.246;2022-10-31T11:41:26;12.80;;;8.80;;
10701;SDS011;5402;50.004;8.246;2022-10-31T11:43:55;14.10;;;8.67;;
10701;SDS011;5402;50.004;8.246;2022-10-31T11:46:26;15.60;;;8.90;;
10701;SDS011;5402;50.004;8.246;2022-10-31T11:49:00;17.70;;;9.60;;
10701;SDS011;5402;50.004;8.246;2022-10-31T11:51:28;13.37;;;9.10;;
10701;SDS011;5402;50.004;8.246;2022-10-31T11:53:58;13.20;;;9.30;;
10701;SDS011;5402;50.004;8.246;2022-10-31T11:56:27;15.63;;;9.67;;
10701;SDS011;5402;50.004;8.246;2022-10-31T11:59:03;19.47;;;9.53;;
10701;SDS011;5402;50.004;8.246;2022-10-31T12:01:32;13.07;;;8.60;;
10701;SDS011;5402;50.004;8.246;2022-10-31T12:04:02;13.43;;;9.40;;
10701;SDS011;5402;50.004;8.246;2022-10-31T12:06:33;22.97;;;9.47;;
10701;SDS011;5402;50.004;8.246;2022-10-31T12:09:01;14.93;;;9.10;;
10701;SDS011;5402;50.004;8.246;2022-10-31T12:11:34;18.50;;;9.10;;
10701;SDS011;5402;50.004;8.246;2022-10-31T12:14:13;12.90;;;8.83;;
10701;SDS011;5402;50.004;8.246;2022-10-31T12:16:51;13.00;;;8.70;;
10701;SDS011;5402;50.004;8.246;2022-10-31T12:19:27;14.97;;;8.67;;
10701;SDS011;5402;50.004;8.246;2022-10-31T12:22:04;16.03;;;9.13;;
10701;SDS011;5402;50.004;8.246;2022-10-31T12:24:44;15.57;;;8.83;;
10701;SDS011;5402;50.004;8.246;2022-10-31T12:27:25;14.17;;;8.47;;
10701;SDS011;5402;50.004;8.246;2022-10-31T12:30:10;13.73;;;8.13;;
10701;SDS011;5402;50.004;8.246;2022-10-31T12:32:50;16.13;;;8.17;;
10701;SDS011;5402;50.004;8.246;2022-10-31T12:35:42;12.40;;;8.37;;
10701;SDS011;5402;50.004;8.246;2022-10-31T12:38:18;14.17;;;9.33;;
10701;SDS011;5402;50.004;8.246;2022-10-31T12:41:03;13.80;;;8.70;;
10701;SDS011;5402;50.004;8.246;2022-10-31T12:43:46;14.73;;;8.17;;
10701;SDS011;5402;50.004;8.246;2022-10-31T12:46:23;13.00;;;8.20;;
10701;SDS011;5402;50.004;8.246;2022-10-31T12:49:14;15.37;;;8.70;;
10701;SDS011;5402;50.004;8.246;2022-10-31T12:51:56;13.57;;;8.67;;
10701;SDS011;5402;50.004;8.246;2022-10-31T12:54:36;14.07;;;8.57;;
10701;SDS011;5402;50.004;8.246;2022-10-31T12:57:13;15.03;;;8.50;;
10701;SDS011;5402;50.004;8.246;2022-10-31T12:59:49;13.27;;;8.60;;
10701;SDS011;5402;50.004;8.246;2022-10-31T13:02:20;19.17;;;8.97;;
10701;SDS011;5402;50.004;8.246;2022-10-31T13:04:51;13.03;;;8.13;;
10701;SDS011;5402;50.004;8.246;2022-10-31T13:07:24;14.00;;;8.50;;
10701;SDS011;5402;50.004;8.246;2022-10-31T13:09:56;12.43;;;9.10;;
10701;SDS011;5402;50.004;8.246;2022-10-31T13:12:29;14.67;;;8.93;;
10701;SDS011;5402;50.004;8.246;2022-10-31T13:14:58;16.43;;;8.83;;
10701;SDS011;5402;50.004;8.246;2022-10-31T13:17:30;14.80;;;9.07;;
10701;SDS011;5402;50.004;8.246;2022-10-31T13:20:11;17.93;;;9.40;;
10701;SDS011;5402;50.004;8.246;2022-10-31T13:22:45;13.67;;;8.37;;
10701;SDS011;5402;50.004;8.246;2022-10-31T13:25:16;15.13;;;9.93;;
10701;SDS011;5402;50.004;8.246;2022-10-31T13:27:46;15.77;;;8.57;;
10701;SDS011;5402;50.004;8.246;2022-10-31T13:30:18;11.87;;;8.33;;
10701;SDS011;5402;50.004;8.246;2022-10-31T13:32:48;12.67;;;9.27;;
10701;SDS011;5402;50.004;8.246;2022-10-31T13:35:21;12.97;;;8.73;;
10701;SDS011;5402;50.004;8.246;2022-10-31T13:37:56;13.20;;;8.83;;
10701;SDS011;5402;50.004;8.246;2022-10-31T13:40:33;9.67;;;7.70;;
10701;SDS011;5402;50.004;8.246;2022-10-31T13:43:10;15.10;;;8.30;;
10701;SDS011;5402;50.004;8.246;2022-10-31T13:45:47;17.83;;;8.80;;
10701;SDS011;5402;50.004;8.246;2022-10-31T13:48:28;17.57;;;8.50;;
10701;SDS011;5402;50.004;8.246;2022-10-31T13:51:07;10.17;;;6.73;;
10701;SDS011;5402;50.004;8.246;2022-10-31T13:53:37;11.73;;;7.17;;
10701;SDS011;5402;50.004;8.246;2022-10-31T13:56:20;11.43;;;7.10;;
10701;SDS011;5402;50.004;8.246;2022-10-31T13:58:58;10.60;;;6.87;;
10701;SDS011;5402;50.004;8.246;2022-10-31T14:01:31;11.53;;;6.93;;
10701;SDS011;5402;50.004;8.246;2022-10-31T14:04:00;12.47;;;6.53;;
10701;SDS011;5402;50.004;8.246;2022-10-31T14:06:41;12.87;;;6.77;;
10701;SDS011;5402;50.004;8.246;2022-10-31T14:09:23;11.60;;;7.13;;
10701;SDS011;5402;50.004;8.246;2022-10-31T14:12:02;12.80;;;6.80;;
10701;SDS011;5402;50.004;8.246;2022-10-31T14:14:33;12.50;;;7.33;;
10701;SDS011;5402;50.004;8.246;2022-10-31T14:17:15;11.37;;;6.57;;
10701;SDS011;5402;50.004;8.246;2022-10-31T14:19:56;12.63;;;8.40;;
10701;SDS011;5402;50.004;8.246;2022-10-31T14:22:31;11.20;;;8.83;;
10701;SDS011;5402;50.004;8.246;2022-10-31T14:25:00;13.97;;;8.50;;
10701;SDS011;5402;50.004;8.246;2022-10-31T14:27:32;11.47;;;8.10;;
10701;SDS011;5402;50.004;8.246;2022-10-31T14:30:12;12.53;;;7.67;;
10701;SDS011;5402;50.004;8.246;2022-10-31T14:32:40;12.90;;;7.73;;
10701;SDS011;5402;50.004;8.246;2022-10-31T14:35:09;10.37;;;7.33;;
10701;SDS011;5402;50.004;8.246;2022-10-31T14:37:47;14.63;;;6.73;;
10701;SDS011;5402;50.004;8.246;2022-10-31T14:40:49;12.60;;;7.60;;
10701;SDS011;5402;50.004;8.246;2022-10-31T14:43:34;15.90;;;6.90;;
10701;SDS011;5402;50.004;8.246;2022-10-31T14:46:24;14.87;;;7.90;;
10701;SDS011;5402;50.004;8.246;2022-10-31T14:49:04;14.23;;;7.10;;
10701;SDS011;5402;50.004;8.246;2022-10-31T14:51:43;10.57;;;6.47;;
10701;SDS011;5402;50.004;8.246;2022-10-31T14:54:12;9.83;;;7.17;;
10701;SDS011;5402;50.004;8.246;2022-10-31T14:56:43;12.43;;;7.27;;
10701;SDS011;5402;50.004;8.246;2022-10-31T14:59:15;13.03;;;8.77;;
10701;SDS011;5402;50.004;8.246;2022-10-31T15:01:49;11.37;;;6.67;;
10701;SDS011;5402;50.004;8.246;2022-10-31T15:04:20;13.20;;;6.90;;
10701;SDS011;5402;50.004;8.246;2022-10-31T15:06:49;8.87;;;6.27;;
10701;SDS011;5402;50.004;8.246;2022-10-31T15:09:20;9.93;;;5.87;;
10701;SDS011;5402;50.004;8.246;2022-10-31T15:11:49;10.03;;;6.27;;
10701;SDS011;5402;50.004;8.246;2022-10-31T15:14:20;12.87;;;6.73;;
10701;SDS011;5402;50.004;8.246;2022-10-31T15:16:49;9.50;;;6.43;;
10701;SDS011;5402;50.004;8.246;2022-10-31T15:19:20;11.93;;;6.90;;